Eastern, Illinois
Current Conditions -  °F | °C
As of 10:51 AM on Friday 28 Nov 2014 (Local Time) from KMWA Reporting Station
Clear Clear  
Wind Chill: 32°   Ceiling: Unl
Heat Index: 41°   Visibility: 10mi
Dew Point: 32°   Wind: 17mph
Humidity: 70%   Direction: 190°S
Pressure: 30.26"   Gusts: NA
Location:  38.0175°N, 88.9351°W
Report Text: KMWA 281651Z 19015KT 10SM SKC 05/00 A3026
Loading
Personal Weather Stations






























Interactive Weather Map New forecast layout! Learn more

10-Day Weather Forecast

Advertisements
Track Severe Weather on mobile